CheckWX is a tool to help pilots better visualize weather data.  It is not intended as a substitute for an official pre-flight weather briefing.

23:21:15 UTC

LIRL METAR
Latina Airport
Latina, Italy
Current

5 hours ago

LIRL 211755Z VRB02KT CAVOK 10/07 Q1035 RMK BKN FEW120 BKN200 MON INVIS NC VIS MIN 9999 WIND THR12 VRB02KT WIND THR30 VRB03KT BLU
Observed
Jan-21 @ 17:55 UTC
Wind
  • Variable at 2 KTS
Visibility
10,000+ meters
Flight Rules
VFR
Cloud Levels
  • Clear skies
Temperature
10°C / 50°F
Dewpoint
C / 45°F
Humidity
82%
Altimeter
30.56" Hg
Pressure
1034.92 hPa
Previous

6 hours ago

LIRL 211655Z 33003KT CAVOK 12/07 Q1035 RMK BKN FEW120 BKN200 MON INVIS VAR RAPID VIS MIN 9999 WIND THR12 00000KT WIND THR30 29002KT BLU
Observed
Jan-21 @ 16:55 UTC
Wind
  • 330° at 3 KTS
Visibility
10,000+ meters
Flight Rules
VFR
Cloud Levels
  • Clear skies
Temperature
12°C / 54°F
Dewpoint
C / 45°F
Humidity
72%
Altimeter
30.56" Hg
Pressure
1034.92 hPa
Previous

7 hours ago

LIRL 211555Z 00000KT CAVOK 14/07 Q1035
Observed
Jan-21 @ 15:55 UTC
Visibility
10,000+ meters
Flight Rules
VFR
Cloud Levels
  • Clear skies
Temperature
14°C / 57°F
Dewpoint
C / 45°F
Humidity
63%
Altimeter
30.56" Hg
Pressure
1034.92 hPa